sensor_id;sensor_type;location;lat;lon;timestamp;temperature;humidity
12408;DHT22;6268;48.188;17.134;2023-04-01T00:01:50;11.20;99.90
12408;DHT22;6268;48.188;17.134;2023-04-01T00:04:19;11.20;99.90
12408;DHT22;6268;48.188;17.134;2023-04-01T00:06:48;11.20;99.90
12408;DHT22;6268;48.188;17.134;2023-04-01T00:09:20;11.20;99.90
12408;DHT22;6268;48.188;17.134;2023-04-01T00:11:48;11.20;99.90
12408;DHT22;6268;48.188;17.134;2023-04-01T00:14:17;11.30;99.90
12408;DHT22;6268;48.188;17.134;2023-04-01T00:16:46;11.30;99.90
12408;DHT22;6268;48.188;17.134;2023-04-01T00:19:15;11.30;99.90
12408;DHT22;6268;48.188;17.134;2023-04-01T00:21:44;11.40;99.90
12408;DHT22;6268;48.188;17.134;2023-04-01T00:24:13;11.40;99.90
12408;DHT22;6268;48.188;17.134;2023-04-01T00:26:44;11.50;99.90
12408;DHT22;6268;48.188;17.134;2023-04-01T00:29:14;11.50;99.90
12408;DHT22;6268;48.188;17.134;2023-04-01T00:31:43;11.50;99.90
12408;DHT22;6268;48.188;17.134;2023-04-01T00:34:12;11.60;99.90
12408;DHT22;6268;48.188;17.134;2023-04-01T00:36:41;11.60;99.90
12408;DHT22;6268;48.188;17.134;2023-04-01T00:39:10;11.60;99.90
12408;DHT22;6268;48.188;17.134;2023-04-01T00:41:38;11.60;99.90
12408;DHT22;6268;48.188;17.134;2023-04-01T00:44:20;11.60;99.90
12408;DHT22;6268;48.188;17.134;2023-04-01T00:46:51;11.60;99.90
12408;DHT22;6268;48.188;17.134;2023-04-01T00:49:23;11.60;99.90
12408;DHT22;6268;48.188;17.134;2023-04-01T00:51:57;11.60;99.90
12408;DHT22;6268;48.188;17.134;2023-04-01T00:54:30;11.60;99.90
12408;DHT22;6268;48.188;17.134;2023-04-01T00:57:03;11.60;99.90
12408;DHT22;6268;48.188;17.134;2023-04-01T00:59:40;11.60;99.90
12408;DHT22;6268;48.188;17.134;2023-04-01T01:02:13;11.80;99.90
12408;DHT22;6268;48.188;17.134;2023-04-01T01:04:42;11.70;99.90
12408;DHT22;6268;48.188;17.134;2023-04-01T01:07:20;11.80;99.90
12408;DHT22;6268;48.188;17.134;2023-04-01T01:10:01;11.80;99.90
12408;DHT22;6268;48.188;17.134;2023-04-01T01:12:40;11.80;99.90
12408;DHT22;6268;48.188;17.134;2023-04-01T01:15:20;11.80;99.90
12408;DHT22;6268;48.188;17.134;2023-04-01T01:17:58;11.90;99.90
12408;DHT22;6268;48.188;17.134;2023-04-01T01:20:50;11.90;99.90
12408;DHT22;6268;48.188;17.134;2023-04-01T01:24:11;11.90;99.90
12408;DHT22;6268;48.188;17.134;2023-04-01T01:27:03;11.80;99.90
12408;DHT22;6268;48.188;17.134;2023-04-01T01:30:14;11.80;99.90
12408;DHT22;6268;48.188;17.134;2023-04-01T01:33:06;11.80;99.90
12408;DHT22;6268;48.188;17.134;2023-04-01T01:35:46;11.80;99.90
12408;DHT22;6268;48.188;17.134;2023-04-01T01:38:19;11.80;99.90
12408;DHT22;6268;48.188;17.134;2023-04-01T01:40:51;11.70;99.90
12408;DHT22;6268;48.188;17.134;2023-04-01T01:43:28;11.70;99.90
12408;DHT22;6268;48.188;17.134;2023-04-01T01:46:04;11.70;99.90
12408;DHT22;6268;48.188;17.134;2023-04-01T01:48:36;11.70;99.90
12408;DHT22;6268;48.188;17.134;2023-04-01T01:51:08;11.70;99.90
12408;DHT22;6268;48.188;17.134;2023-04-01T01:53:38;11.60;99.90
12408;DHT22;6268;48.188;17.134;2023-04-01T01:56:07;11.60;99.90
12408;DHT22;6268;48.188;17.134;2023-04-01T01:58:38;11.50;99.90
12408;DHT22;6268;48.188;17.134;2023-04-01T02:01:14;11.60;99.90
12408;DHT22;6268;48.188;17.134;2023-04-01T02:03:46;11.60;99.90
12408;DHT22;6268;48.188;17.134;2023-04-01T02:06:20;11.60;99.90
12408;DHT22;6268;48.188;17.134;2023-04-01T02:08:52;11.50;99.90
12408;DHT22;6268;48.188;17.134;2023-04-01T02:11:27;11.50;99.90
12408;DHT22;6268;48.188;17.134;2023-04-01T02:14:01;11.40;99.90
12408;DHT22;6268;48.188;17.134;2023-04-01T02:16:37;11.40;99.90
12408;DHT22;6268;48.188;17.134;2023-04-01T02:19:12;11.40;99.90
12408;DHT22;6268;48.188;17.134;2023-04-01T02:21:44;11.40;99.90
12408;DHT22;6268;48.188;17.134;2023-04-01T02:24:14;11.40;99.90
12408;DHT22;6268;48.188;17.134;2023-04-01T02:26:45;11.40;99.90
12408;DHT22;6268;48.188;17.134;2023-04-01T02:29:15;11.40;99.90
12408;DHT22;6268;48.188;17.134;2023-04-01T02:31:49;11.40;99.90
12408;DHT22;6268;48.188;17.134;2023-04-01T02:34:20;11.40;99.90
12408;DHT22;6268;48.188;17.134;2023-04-01T02:36:52;11.30;99.90
12408;DHT22;6268;48.188;17.134;2023-04-01T02:39:21;11.30;99.90
12408;DHT22;6268;48.188;17.134;2023-04-01T02:41:53;11.20;99.90
12408;DHT22;6268;48.188;17.134;2023-04-01T02:44:22;11.20;99.90
12408;DHT22;6268;48.188;17.134;2023-04-01T02:46:50;11.20;99.90
12408;DHT22;6268;48.188;17.134;2023-04-01T02:49:20;11.10;99.90
12408;DHT22;6268;48.188;17.134;2023-04-01T02:51:48;11.10;99.90
12408;DHT22;6268;48.188;17.134;2023-04-01T02:54:20;11.00;99.90
12408;DHT22;6268;48.188;17.134;2023-04-01T02:56:49;11.00;99.90
12408;DHT22;6268;48.188;17.134;2023-04-01T02:59:17;11.00;99.90
12408;DHT22;6268;48.188;17.134;2023-04-01T03:01:46;11.00;99.90
12408;DHT22;6268;48.188;17.134;2023-04-01T03:04:15;10.80;99.90
12408;DHT22;6268;48.188;17.134;2023-04-01T03:06:44;10.80;99.90
12408;DHT22;6268;48.188;17.134;2023-04-01T03:09:12;10.70;99.90
12408;DHT22;6268;48.188;17.134;2023-04-01T03:11:43;10.70;99.90
12408;DHT22;6268;48.188;17.134;2023-04-01T03:14:12;10.70;99.90
12408;DHT22;6268;48.188;17.134;2023-04-01T03:16:40;10.70;99.90
12408;DHT22;6268;48.188;17.134;2023-04-01T03:19:09;10.70;99.90
12408;DHT22;6268;48.188;17.134;2023-04-01T03:21:38;10.80;99.90
12408;DHT22;6268;48.188;17.134;2023-04-01T03:24:07;10.80;99.90
12408;DHT22;6268;48.188;17.134;2023-04-01T03:26:36;10.80;99.90
12408;DHT22;6268;48.188;17.134;2023-04-01T03:29:07;10.80;99.90
12408;DHT22;6268;48.188;17.134;2023-04-01T03:31:35;10.80;99.90
12408;DHT22;6268;48.188;17.134;2023-04-01T03:34:04;10.80;99.90
12408;DHT22;6268;48.188;17.134;2023-04-01T03:36:33;10.80;99.90
12408;DHT22;6268;48.188;17.134;2023-04-01T03:39:02;10.80;99.90
12408;DHT22;6268;48.188;17.134;2023-04-01T03:41:32;10.80;99.90
12408;DHT22;6268;48.188;17.134;2023-04-01T03:44:03;10.80;99.90
12408;DHT22;6268;48.188;17.134;2023-04-01T03:46:34;10.80;99.90
12408;DHT22;6268;48.188;17.134;2023-04-01T03:49:05;10.80;99.90
12408;DHT22;6268;48.188;17.134;2023-04-01T03:51:38;10.80;99.90
12408;DHT22;6268;48.188;17.134;2023-04-01T03:54:07;10.80;99.90
12408;DHT22;6268;48.188;17.134;2023-04-01T03:56:37;10.80;99.90
12408;DHT22;6268;48.188;17.134;2023-04-01T03:59:07;10.80;99.90
12408;DHT22;6268;48.188;17.134;2023-04-01T04:01:38;10.70;99.90
12408;DHT22;6268;48.188;17.134;2023-04-01T04:04:07;10.70;99.90
12408;DHT22;6268;48.188;17.134;2023-04-01T04:06:35;10.80;99.90
12408;DHT22;6268;48.188;17.134;2023-04-01T04:09:04;10.70;99.90
12408;DHT22;6268;48.188;17.134;2023-04-01T04:11:33;10.70;99.90
12408;DHT22;6268;48.188;17.134;2023-04-01T04:14:02;10.70;99.90
12408;DHT22;6268;48.188;17.134;2023-04-01T04:16:31;10.70;99.90
12408;DHT22;6268;48.188;17.134;2023-04-01T04:19:01;10.70;99.90
12408;DHT22;6268;48.188;17.134;2023-04-01T04:21:30;10.70;99.90
12408;DHT22;6268;48.188;17.134;2023-04-01T04:23:59;10.70;99.90
12408;DHT22;6268;48.188;17.134;2023-04-01T04:26:28;10.80;99.90
12408;DHT22;6268;48.188;17.134;2023-04-01T04:28:57;10.80;99.90
12408;DHT22;6268;48.188;17.134;2023-04-01T04:31:26;10.90;99.90
12408;DHT22;6268;48.188;17.134;2023-04-01T04:33:56;10.90;99.90
12408;DHT22;6268;48.188;17.134;2023-04-01T04:36:28;10.80;99.90
12408;DHT22;6268;48.188;17.134;2023-04-01T04:38:57;10.80;99.90
12408;DHT22;6268;48.188;17.134;2023-04-01T04:41:29;10.70;99.90
12408;DHT22;6268;48.188;17.134;2023-04-01T04:43:58;10.70;99.90
12408;DHT22;6268;48.188;17.134;2023-04-01T04:46:27;10.80;99.90
12408;DHT22;6268;48.188;17.134;2023-04-01T04:48:56;10.90;99.90
12408;DHT22;6268;48.188;17.134;2023-04-01T04:51:25;11.00;99.90
12408;DHT22;6268;48.188;17.134;2023-04-01T04:53:55;11.00;99.90
12408;DHT22;6268;48.188;17.134;2023-04-01T04:56:24;11.00;99.90
12408;DHT22;6268;48.188;17.134;2023-04-01T04:58:53;11.00;99.90
12408;DHT22;6268;48.188;17.134;2023-04-01T05:01:23;11.00;99.90
12408;DHT22;6268;48.188;17.134;2023-04-01T05:03:52;10.90;99.90
12408;DHT22;6268;48.188;17.134;2023-04-01T05:06:21;10.90;99.90
12408;DHT22;6268;48.188;17.134;2023-04-01T05:08:50;10.90;99.90
12408;DHT22;6268;48.188;17.134;2023-04-01T05:11:20;10.90;99.90
12408;DHT22;6268;48.188;17.134;2023-04-01T05:13:49;10.90;99.90
12408;DHT22;6268;48.188;17.134;2023-04-01T05:16:19;10.90;99.90
12408;DHT22;6268;48.188;17.134;2023-04-01T05:18:48;10.90;99.90
12408;DHT22;6268;48.188;17.134;2023-04-01T05:21:17;11.00;99.90
12408;DHT22;6268;48.188;17.134;2023-04-01T05:23:46;10.90;99.90
12408;DHT22;6268;48.188;17.134;2023-04-01T05:26:15;11.00;99.90
12408;DHT22;6268;48.188;17.134;2023-04-01T05:28:45;11.10;99.90
12408;DHT22;6268;48.188;17.134;2023-04-01T05:31:14;11.10;99.90
12408;DHT22;6268;48.188;17.134;2023-04-01T05:33:43;11.10;99.90
12408;DHT22;6268;48.188;17.134;2023-04-01T05:36:13;11.20;99.90
12408;DHT22;6268;48.188;17.134;2023-04-01T05:38:44;11.30;99.90
12408;DHT22;6268;48.188;17.134;2023-04-01T05:41:14;11.50;99.90
12408;DHT22;6268;48.188;17.134;2023-04-01T05:43:45;11.50;99.90
12408;DHT22;6268;48.188;17.134;2023-04-01T05:46:14;11.40;99.90
12408;DHT22;6268;48.188;17.134;2023-04-01T05:48:44;11.50;99.90
12408;DHT22;6268;48.188;17.134;2023-04-01T05:51:14;11.50;99.90
12408;DHT22;6268;48.188;17.134;2023-04-01T05:53:44;11.50;99.90
12408;DHT22;6268;48.188;17.134;2023-04-01T05:56:13;11.50;99.90
12408;DHT22;6268;48.188;17.134;2023-04-01T05:58:42;11.50;99.90
12408;DHT22;6268;48.188;17.134;2023-04-01T06:01:12;11.50;99.90
12408;DHT22;6268;48.188;17.134;2023-04-01T06:03:42;11.70;99.90
12408;DHT22;6268;48.188;17.134;2023-04-01T06:06:13;11.70;99.90
12408;DHT22;6268;48.188;17.134;2023-04-01T06:08:44;11.80;99.90
12408;DHT22;6268;48.188;17.134;2023-04-01T06:11:22;11.90;99.90
12408;DHT22;6268;48.188;17.134;2023-04-01T06:14:19;11.90;99.90
12408;DHT22;6268;48.188;17.134;2023-04-01T06:17:12;12.20;99.90
12408;DHT22;6268;48.188;17.134;2023-04-01T06:19:54;12.10;99.90
12408;DHT22;6268;48.188;17.134;2023-04-01T06:22:58;12.20;99.90
12408;DHT22;6268;48.188;17.134;2023-04-01T06:25:45;12.40;99.90
12408;DHT22;6268;48.188;17.134;2023-04-01T06:28:52;12.50;99.90
12408;DHT22;6268;48.188;17.134;2023-04-01T06:32:05;12.40;99.90
12408;DHT22;6268;48.188;17.134;2023-04-01T06:34:54;12.60;99.90
12408;DHT22;6268;48.188;17.134;2023-04-01T06:37:54;12.80;99.90
12408;DHT22;6268;48.188;17.134;2023-04-01T06:41:00;12.90;99.90
12408;DHT22;6268;48.188;17.134;2023-04-01T06:43:52;13.10;99.90
12408;DHT22;6268;48.188;17.134;2023-04-01T06:46:33;13.70;99.90
12408;DHT22;6268;48.188;17.134;2023-04-01T06:49:39;14.60;99.90
12408;DHT22;6268;48.188;17.134;2023-04-01T06:52:24;15.30;99.90
12408;DHT22;6268;48.188;17.134;2023-04-01T06:55:02;15.90;99.90
12408;DHT22;6268;48.188;17.134;2023-04-01T06:57:57;16.70;99.90
12408;DHT22;6268;48.188;17.134;2023-04-01T07:00:31;16.60;98.60
12408;DHT22;6268;48.188;17.134;2023-04-01T07:03:09;16.10;99.10
12408;DHT22;6268;48.188;17.134;2023-04-01T07:05:47;15.90;99.50
12408;DHT22;6268;48.188;17.134;2023-04-01T07:08:21;15.70;99.70
12408;DHT22;6268;48.188;17.134;2023-04-01T07:10:55;15.90;99.70
12408;DHT22;6268;48.188;17.134;2023-04-01T07:13:30;16.10;99.90
12408;DHT22;6268;48.188;17.134;2023-04-01T07:16:12;16.70;98.40
12408;DHT22;6268;48.188;17.134;2023-04-01T07:18:49;17.70;95.40
12408;DHT22;6268;48.188;17.134;2023-04-01T07:21:28;18.10;92.30
12408;DHT22;6268;48.188;17.134;2023-04-01T07:24:06;18.20;89.70
12408;DHT22;6268;48.188;17.134;2023-04-01T07:26:40;17.80;90.40
12408;DHT22;6268;48.188;17.134;2023-04-01T07:29:12;17.30;90.80
12408;DHT22;6268;48.188;17.134;2023-04-01T07:32:09;16.60;91.20
12408;DHT22;6268;48.188;17.134;2023-04-01T07:35:07;16.30;92.50
12408;DHT22;6268;48.188;17.134;2023-04-01T07:37:52;15.90;92.60
12408;DHT22;6268;48.188;17.134;2023-04-01T07:40:37;15.60;93.70
12408;DHT22;6268;48.188;17.134;2023-04-01T07:43:42;15.60;94.70
12408;DHT22;6268;48.188;17.134;2023-04-01T07:46:29;15.50;95.00
12408;DHT22;6268;48.188;17.134;2023-04-01T07:49:14;15.30;95.20
12408;DHT22;6268;48.188;17.134;2023-04-01T07:51:49;15.20;96.30
12408;DHT22;6268;48.188;17.134;2023-04-01T07:54:35;15.20;96.40
12408;DHT22;6268;48.188;17.134;2023-04-01T07:57:14;15.20;97.00
12408;DHT22;6268;48.188;17.134;2023-04-01T07:59:56;15.20;97.50
12408;DHT22;6268;48.188;17.134;2023-04-01T08:02:38;15.10;96.40
12408;DHT22;6268;48.188;17.134;2023-04-01T08:05:24;15.30;97.30
12408;DHT22;6268;48.188;17.134;2023-04-01T08:08:02;15.60;96.20
12408;DHT22;6268;48.188;17.134;2023-04-01T08:10:43;16.50;95.00
12408;DHT22;6268;48.188;17.134;2023-04-01T08:13:27;17.50;91.20
12408;DHT22;6268;48.188;17.134;2023-04-01T08:16:08;18.50;87.50
12408;DHT22;6268;48.188;17.134;2023-04-01T08:18:49;18.30;84.80
12408;DHT22;6268;48.188;17.134;2023-04-01T08:21:29;18.20;83.10
12408;DHT22;6268;48.188;17.134;2023-04-01T08:24:12;18.00;81.10
12408;DHT22;6268;48.188;17.134;2023-04-01T08:26:53;18.70;83.30
12408;DHT22;6268;48.188;17.134;2023-04-01T08:29:32;19.50;77.90
12408;DHT22;6268;48.188;17.134;2023-04-01T08:32:08;20.10;74.90
12408;DHT22;6268;48.188;17.134;2023-04-01T08:34:44;20.50;71.30
12408;DHT22;6268;48.188;17.134;2023-04-01T08:37:19;20.80;68.80
12408;DHT22;6268;48.188;17.134;2023-04-01T08:39:57;20.70;67.00
12408;DHT22;6268;48.188;17.134;2023-04-01T08:42:50;20.80;67.50
12408;DHT22;6268;48.188;17.134;2023-04-01T08:45:48;21.00;66.10
12408;DHT22;6268;48.188;17.134;2023-04-01T08:48:51;21.20;64.50
12408;DHT22;6268;48.188;17.134;2023-04-01T08:51:54;21.00;63.50
12408;DHT22;6268;48.188;17.134;2023-04-01T08:54:45;20.30;65.30
12408;DHT22;6268;48.188;17.134;2023-04-01T08:57:38;19.80;67.10
12408;DHT22;6268;48.188;17.134;2023-04-01T09:00:25;19.50;68.80
12408;DHT22;6268;48.188;17.134;2023-04-01T09:03:15;19.30;67.60
12408;DHT22;6268;48.188;17.134;2023-04-01T09:06:28;19.40;67.20
12408;DHT22;6268;48.188;17.134;2023-04-01T09:09:35;20.10;66.80
12408;DHT22;6268;48.188;17.134;2023-04-01T09:12:43;20.40;65.00
12408;DHT22;6268;48.188;17.134;2023-04-01T09:19:21;21.50;63.90
12408;DHT22;6268;48.188;17.134;2023-04-01T09:22:03;21.60;60.20
12408;DHT22;6268;48.188;17.134;2023-04-01T09:25:15;21.90;61.10
12408;DHT22;6268;48.188;17.134;2023-04-01T09:28:10;22.20;58.90
12408;DHT22;6268;48.188;17.134;2023-04-01T09:30:57;21.90;59.30
12408;DHT22;6268;48.188;17.134;2023-04-01T09:37:18;21.20;59.50
12408;DHT22;6268;48.188;17.134;2023-04-01T09:40:09;21.20;60.90
12408;DHT22;6268;48.188;17.134;2023-04-01T09:42:49;21.10;59.90
12408;DHT22;6268;48.188;17.134;2023-04-01T09:45:42;20.50;61.40
12408;DHT22;6268;48.188;17.134;2023-04-01T09:48:50;20.00;62.40
12408;DHT22;6268;48.188;17.134;2023-04-01T09:51:47;19.00;64.60
12408;DHT22;6268;48.188;17.134;2023-04-01T09:54:40;18.40;67.70
12408;DHT22;6268;48.188;17.134;2023-04-01T10:04:27;17.80;70.40
12408;DHT22;6268;48.188;17.134;2023-04-01T10:07:44;17.70;71.50
12408;DHT22;6268;48.188;17.134;2023-04-01T10:10:47;17.70;72.40
12408;DHT22;6268;48.188;17.134;2023-04-01T10:14:11;17.70;73.00
12408;DHT22;6268;48.188;17.134;2023-04-01T10:17:19;18.20;72.20
12408;DHT22;6268;48.188;17.134;2023-04-01T10:20:22;18.30;71.30
12408;DHT22;6268;48.188;17.134;2023-04-01T10:23:39;18.50;70.50
12408;DHT22;6268;48.188;17.134;2023-04-01T10:26:44;18.30;69.60
12408;DHT22;6268;48.188;17.134;2023-04-01T10:36:47;17.70;70.20
12408;DHT22;6268;48.188;17.134;2023-04-01T10:39:56;17.60;70.90
12408;DHT22;6268;48.188;17.134;2023-04-01T10:43:15;17.70;70.50
12408;DHT22;6268;48.188;17.134;2023-04-01T10:46:32;17.40;71.30
12408;DHT22;6268;48.188;17.134;2023-04-01T10:49:43;17.10;72.30
12408;DHT22;6268;48.188;17.134;2023-04-01T10:56:15;16.80;71.80
12408;DHT22;6268;48.188;17.134;2023-04-01T11:06:20;16.90;74.60
12408;DHT22;6268;48.188;17.134;2023-04-01T11:09:33;16.60;75.30
12408;DHT22;6268;48.188;17.134;2023-04-01T11:22:36;16.90;73.40
12408;DHT22;6268;48.188;17.134;2023-04-01T11:25:36;16.70;72.80
12408;DHT22;6268;48.188;17.134;2023-04-01T11:28:35;17.00;73.30
12408;DHT22;6268;48.188;17.134;2023-04-01T11:31:33;17.20;72.40
12408;DHT22;6268;48.188;17.134;2023-04-01T11:34:16;16.90;71.10
12408;DHT22;6268;48.188;17.134;2023-04-01T11:37:19;17.00;71.60
12408;DHT22;6268;48.188;17.134;2023-04-01T11:40:09;16.80;72.70
12408;DHT22;6268;48.188;17.134;2023-04-01T11:42:54;16.80;72.50
12408;DHT22;6268;48.188;17.134;2023-04-01T11:45:35;16.70;70.80
12408;DHT22;6268;48.188;17.134;2023-04-01T11:48:24;16.80;71.70
12408;DHT22;6268;48.188;17.134;2023-04-01T11:51:30;17.10;71.80
12408;DHT22;6268;48.188;17.134;2023-04-01T11:54:20;17.00;71.70
12408;DHT22;6268;48.188;17.134;2023-04-01T11:57:09;17.10;71.00
12408;DHT22;6268;48.188;17.134;2023-04-01T12:00:24;16.90;71.30
12408;DHT22;6268;48.188;17.134;2023-04-01T12:03:27;16.60;73.00
12408;DHT22;6268;48.188;17.134;2023-04-01T12:06:13;17.00;72.90
12408;DHT22;6268;48.188;17.134;2023-04-01T12:08:51;17.40;71.50
12408;DHT22;6268;48.188;17.134;2023-04-01T12:11:36;17.40;69.20
12408;DHT22;6268;48.188;17.134;2023-04-01T12:14:18;17.60;68.50
12408;DHT22;6268;48.188;17.134;2023-04-01T12:16:58;17.70;67.30
12408;DHT22;6268;48.188;17.134;2023-04-01T12:19:39;17.70;64.10
12408;DHT22;6268;48.188;17.134;2023-04-01T12:22:38;17.50;62.70
12408;DHT22;6268;48.188;17.134;2023-04-01T12:25:33;17.70;63.70
12408;DHT22;6268;48.188;17.134;2023-04-01T12:28:25;17.60;62.50
12408;DHT22;6268;48.188;17.134;2023-04-01T12:31:19;17.60;63.20
12408;DHT22;6268;48.188;17.134;2023-04-01T12:34:19;17.80;64.20
12408;DHT22;6268;48.188;17.134;2023-04-01T12:37:13;17.80;63.00
12408;DHT22;6268;48.188;17.134;2023-04-01T12:39:58;17.70;62.80
12408;DHT22;6268;48.188;17.134;2023-04-01T12:42:55;17.80;62.20
12408;DHT22;6268;48.188;17.134;2023-04-01T12:45:32;17.70;62.40
12408;DHT22;6268;48.188;17.134;2023-04-01T12:51:30;17.50;62.60
12408;DHT22;6268;48.188;17.134;2023-04-01T12:54:30;17.30;63.80
12408;DHT22;6268;48.188;17.134;2023-04-01T12:57:25;17.40;64.00
12408;DHT22;6268;48.188;17.134;2023-04-01T13:00:33;17.60;63.10
12408;DHT22;6268;48.188;17.134;2023-04-01T13:03:39;17.60;63.00
12408;DHT22;6268;48.188;17.134;2023-04-01T13:06:29;17.30;61.90
12408;DHT22;6268;48.188;17.134;2023-04-01T13:09:18;17.20;62.80
12408;DHT22;6268;48.188;17.134;2023-04-01T13:12:06;17.00;62.50
12408;DHT22;6268;48.188;17.134;2023-04-01T13:15:11;17.00;63.60
12408;DHT22;6268;48.188;17.134;2023-04-01T13:17:53;16.90;64.60
12408;DHT22;6268;48.188;17.134;2023-04-01T13:20:41;17.10;65.10
12408;DHT22;6268;48.188;17.134;2023-04-01T13:23:22;17.30;65.40
12408;DHT22;6268;48.188;17.134;2023-04-01T13:26:07;17.50;63.50
12408;DHT22;6268;48.188;17.134;2023-04-01T13:28:47;17.50;63.30
12408;DHT22;6268;48.188;17.134;2023-04-01T13:31:33;17.50;62.60
12408;DHT22;6268;48.188;17.134;2023-04-01T13:34:27;17.40;62.90
12408;DHT22;6268;48.188;17.134;2023-04-01T13:40:24;17.50;63.10
12408;DHT22;6268;48.188;17.134;2023-04-01T13:43:02;17.60;63.30
12408;DHT22;6268;48.188;17.134;2023-04-01T13:45:46;17.60;63.10
12408;DHT22;6268;48.188;17.134;2023-04-01T13:48:36;17.40;63.60
12408;DHT22;6268;48.188;17.134;2023-04-01T13:51:43;17.30;62.40
12408;DHT22;6268;48.188;17.134;2023-04-01T13:54:43;17.20;62.50
12408;DHT22;6268;48.188;17.134;2023-04-01T13:57:52;17.30;63.50
12408;DHT22;6268;48.188;17.134;2023-04-01T14:00:45;17.20;63.40
12408;DHT22;6268;48.188;17.134;2023-04-01T14:03:37;17.30;64.30
12408;DHT22;6268;48.188;17.134;2023-04-01T14:06:44;17.30;63.80
12408;DHT22;6268;48.188;17.134;2023-04-01T14:09:44;17.30;63.30
12408;DHT22;6268;48.188;17.134;2023-04-01T14:12:29;17.30;63.30
12408;DHT22;6268;48.188;17.134;2023-04-01T14:15:22;17.30;63.10
12408;DHT22;6268;48.188;17.134;2023-04-01T14:18:13;17.20;62.60
12408;DHT22;6268;48.188;17.134;2023-04-01T14:21:03;17.10;63.50
12408;DHT22;6268;48.188;17.134;2023-04-01T14:27:17;16.80;64.80
12408;DHT22;6268;48.188;17.134;2023-04-01T14:33:34;16.60;64.80
12408;DHT22;6268;48.188;17.134;2023-04-01T14:36:34;16.60;65.80
12408;DHT22;6268;48.188;17.134;2023-04-01T14:39:24;16.80;67.80
12408;DHT22;6268;48.188;17.134;2023-04-01T14:42:19;16.80;65.70
12408;DHT22;6268;48.188;17.134;2023-04-01T14:45:12;16.70;65.80
12408;DHT22;6268;48.188;17.134;2023-04-01T14:47:56;16.70;66.80
12408;DHT22;6268;48.188;17.134;2023-04-01T14:50:30;16.70;66.40
12408;DHT22;6268;48.188;17.134;2023-04-01T14:53:16;16.50;66.60
12408;DHT22;6268;48.188;17.134;2023-04-01T14:55:58;16.40;67.70
12408;DHT22;6268;48.188;17.134;2023-04-01T14:58:43;16.50;67.10
12408;DHT22;6268;48.188;17.134;2023-04-01T15:01:28;16.50;67.30
12408;DHT22;6268;48.188;17.134;2023-04-01T15:14:01;16.30;67.80
12408;DHT22;6268;48.188;17.134;2023-04-01T15:16:49;16.50;68.10
12408;DHT22;6268;48.188;17.134;2023-04-01T15:19:36;16.50;68.50
12408;DHT22;6268;48.188;17.134;2023-04-01T15:25:37;16.50;70.30
12408;DHT22;6268;48.188;17.134;2023-04-01T15:28:22;16.40;74.80
12408;DHT22;6268;48.188;17.134;2023-04-01T15:31:02;16.50;77.10
12408;DHT22;6268;48.188;17.134;2023-04-01T15:33:48;16.40;76.10
12408;DHT22;6268;48.188;17.134;2023-04-01T15:36:41;16.40;76.00
12408;DHT22;6268;48.188;17.134;2023-04-01T15:39:23;16.40;75.10
12408;DHT22;6268;48.188;17.134;2023-04-01T15:42:12;16.30;75.80
12408;DHT22;6268;48.188;17.134;2023-04-01T15:45:02;16.30;75.60
12408;DHT22;6268;48.188;17.134;2023-04-01T15:47:41;16.20;76.40
12408;DHT22;6268;48.188;17.134;2023-04-01T15:50:36;16.10;75.60
12408;DHT22;6268;48.188;17.134;2023-04-01T15:53:24;16.10;76.70
12408;DHT22;6268;48.188;17.134;2023-04-01T15:59:20;16.00;75.30
12408;DHT22;6268;48.188;17.134;2023-04-01T16:02:14;16.10;75.80
12408;DHT22;6268;48.188;17.134;2023-04-01T16:04:55;16.10;75.10
12408;DHT22;6268;48.188;17.134;2023-04-01T16:10:58;16.00;75.80
12408;DHT22;6268;48.188;17.134;2023-04-01T16:13:46;16.00;75.90
12408;DHT22;6268;48.188;17.134;2023-04-01T16:16:31;16.00;75.60
12408;DHT22;6268;48.188;17.134;2023-04-01T16:19:28;16.00;75.30
12408;DHT22;6268;48.188;17.134;2023-04-01T16:22:08;16.00;74.90
12408;DHT22;6268;48.188;17.134;2023-04-01T16:24:46;15.90;77.30
12408;DHT22;6268;48.188;17.134;2023-04-01T16:27:25;16.00;76.60
12408;DHT22;6268;48.188;17.134;2023-04-01T16:30:22;16.00;76.90
12408;DHT22;6268;48.188;17.134;2023-04-01T16:33:03;16.10;76.30
12408;DHT22;6268;48.188;17.134;2023-04-01T16:35:45;16.00;74.10
12408;DHT22;6268;48.188;17.134;2023-04-01T16:38:22;15.90;74.90
12408;DHT22;6268;48.188;17.134;2023-04-01T16:41:07;15.90;76.10
12408;DHT22;6268;48.188;17.134;2023-04-01T16:43:44;15.80;75.70
12408;DHT22;6268;48.188;17.134;2023-04-01T16:46:28;15.80;76.30
12408;DHT22;6268;48.188;17.134;2023-04-01T16:49:23;15.90;75.70
12408;DHT22;6268;48.188;17.134;2023-04-01T16:52:12;15.90;74.90
12408;DHT22;6268;48.188;17.134;2023-04-01T16:54:47;15.70;74.30
12408;DHT22;6268;48.188;17.134;2023-04-01T16:57:25;15.80;75.60
12408;DHT22;6268;48.188;17.134;2023-04-01T17:00:03;15.70;75.10
12408;DHT22;6268;48.188;17.134;2023-04-01T17:02:47;15.60;75.90
12408;DHT22;6268;48.188;17.134;2023-04-01T17:05:39;15.60;77.30
12408;DHT22;6268;48.188;17.134;2023-04-01T17:08:26;15.50;79.30
12408;DHT22;6268;48.188;17.134;2023-04-01T17:11:10;15.50;81.50
12408;DHT22;6268;48.188;17.134;2023-04-01T17:13:50;15.30;80.80
12408;DHT22;6268;48.188;17.134;2023-04-01T17:19:51;15.10;83.10
12408;DHT22;6268;48.188;17.134;2023-04-01T17:22:33;15.00;83.30
12408;DHT22;6268;48.188;17.134;2023-04-01T17:25:17;14.90;82.20
12408;DHT22;6268;48.188;17.134;2023-04-01T17:28:02;14.90;82.80
12408;DHT22;6268;48.188;17.134;2023-04-01T17:30:40;14.70;82.30
12408;DHT22;6268;48.188;17.134;2023-04-01T17:36:47;14.70;83.60
12408;DHT22;6268;48.188;17.134;2023-04-01T17:39:36;14.70;84.10
12408;DHT22;6268;48.188;17.134;2023-04-01T17:42:16;14.70;81.60
12408;DHT22;6268;48.188;17.134;2023-04-01T17:44:57;14.80;81.40
12408;DHT22;6268;48.188;17.134;2023-04-01T17:47:40;14.80;81.70
12408;DHT22;6268;48.188;17.134;2023-04-01T17:50:23;14.80;81.30
12408;DHT22;6268;48.188;17.134;2023-04-01T17:56:05;14.70;81.80
12408;DHT22;6268;48.188;17.134;2023-04-01T17:58:48;14.80;82.00
12408;DHT22;6268;48.188;17.134;2023-04-01T18:01:33;14.70;82.30
12408;DHT22;6268;48.188;17.134;2023-04-01T18:04:40;14.70;82.50
12408;DHT22;6268;48.188;17.134;2023-04-01T18:07:49;14.70;84.40
12408;DHT22;6268;48.188;17.134;2023-04-01T18:10:47;14.70;85.20
12408;DHT22;6268;48.188;17.134;2023-04-01T18:13:39;14.70;84.60
12408;DHT22;6268;48.188;17.134;2023-04-01T18:16:41;14.80;85.50
12408;DHT22;6268;48.188;17.134;2023-04-01T18:19:29;14.80;87.10
12408;DHT22;6268;48.188;17.134;2023-04-01T18:22:15;14.80;86.30
12408;DHT22;6268;48.188;17.134;2023-04-01T18:24:56;14.70;86.80
12408;DHT22;6268;48.188;17.134;2023-04-01T18:27:32;14.50;88.00
12408;DHT22;6268;48.188;17.134;2023-04-01T18:30:14;14.60;88.50
12408;DHT22;6268;48.188;17.134;2023-04-01T18:32:50;14.50;89.60